WP3OF-5 Weather Reports


time (UTC)temp
F
wind
direction
speed
knots
gust
knots
rain 1hr
in
rain 24hr
in
rain mn
in
humidity
%
barometer
mb
20260508020446 76 104 0.0 0.9 0.00 0.00 0.00 90 1017.6
20260508015942 76 104 0.0 0.0 0.00 0.00 0.00 90 1017.3
20260508015441 76 104 0.0 0.0 0.00 0.00 0.00 90 1017.6
20260508014937 76 104 0.0 0.0 0.00 0.00 0.00 89 1017.5
20260508014434 76 103 0.0 0.9 0.00 0.00 0.00 89 1017.4
20260508013929 76 101 0.0 1.7 0.00 0.00 0.00 89 1017.4
20260508013426 76 107 0.0 0.9 0.00 0.00 0.00 89 1017.1
20260508012923 77 108 0.0 2.6 0.00 0.00 0.00 88 1017.2
20260508012420 77 113 0.9 1.7 0.00 0.00 0.00 88 1017.2
20260508011918 77 106 0.9 1.7 0.00 0.00 0.00 89 1017.2
20260508011416 77 112 0.0 1.7 0.00 0.00 0.00 88 1017.1
20260508010913 77 112 0.9 1.7 0.00 0.00 0.00 88 1017.0
20260508010410 77 103 0.0 0.9 0.00 0.00 0.00 88 1017.0
20260508005907 77 103 0.0 1.7 0.00 0.00 0.00 88 1017.2
20260508005403 77 104 0.0 2.6 0.00 0.00 0.00 88 1017.2
20260508004900 77 115 0.9 1.7 0.00 0.00 0.00 88 1016.9
20260508004356 77 124 1.7 2.6 0.00 0.00 0.00 88 1016.9
20260508003853 77 116 0.9 1.7 0.00 0.00 0.00 88 1017.0
20260508003349 77 114 0.0 2.6 0.00 0.00 0.00 88 1016.8
20260508002847 77 124 0.0 0.9 0.00 0.00 0.00 88 1016.8
20260508002343 77 121 1.7 1.7 0.00 0.00 0.00 88 1016.9
20260508001840 77 128 0.9 1.7 0.00 0.00 0.00 88 1017.2
20260508001336 77 138 0.9 0.9 0.00 0.00 0.00 88 1016.9
20260508000832 77 115 1.7 2.6 0.00 0.00 0.00 88 1016.9
20260508000328 77 133 1.7 2.6 0.00 0.00 0.00 87 1016.7
20260507235825 77 165 0.9 0.9 0.00 0.00 0.00 88 1016.7
20260507235323 77 125 0.0 0.9 0.00 0.00 0.00 87 1016.5
20260507234820 77 125 0.0 0.9 0.00 0.00 0.00 86 1016.8
20260507234316 77 94 0.0 0.9 0.00 0.00 0.00 86 1016.5
20260507233813 77 89 0.0 0.9 0.00 0.00 0.00 86 1016.6
20260507233311 77 136 1.7 1.7 0.00 0.00 0.00 86 1016.4
20260507232809 78 116 0.0 1.7 0.00 0.00 0.00 86 1016.4
20260507232306 78 106 0.0 1.7 0.00 0.00 0.00 86 1016.8
20260507231801 78 7 0.0 0.9 0.00 0.00 0.00 86 1016.7
20260507231258 78 6 0.0 0.9 0.00 0.00 0.00 86 1016.2
20260507230754 78 6 0.0 0.0 0.00 0.00 0.00 86 1016.5
20260507230252 78 6 0.9 0.9 0.00 0.00 0.00 86 1016.4
20260507225752 78 10 0.0 1.7 0.00 0.00 0.00 85 1016.2
20260507225248 78 13 0.0 1.7 0.00 0.00 0.00 85 1016.2
20260507224744 78 99 0.0 0.9 0.00 0.00 0.00 85 1016.2
20260507224241 78 90 0.0 2.6 0.00 0.00 0.00 84 1016.1
20260507223737 79 99 0.9 1.7 0.00 0.00 0.00 85 1016.0
20260507223234 79 114 0.0 0.9 0.00 0.00 0.00 84 1016.1
20260507222731 79 114 0.9 1.7 0.00 0.00 0.00 84 1016.0
20260507222227 79 110 0.0 0.0 0.00 0.00 0.00 83 1015.9
20260507221724 80 89 0.0 1.7 0.00 0.00 0.00 82 1015.9
20260507221220 80 173 0.0 0.9 0.00 0.00 0.00 81 1015.9
20260507220717 80 183 0.0 0.9 0.00 0.00 0.00 81 1016.0
20260507220216 81 246 0.0 0.0 0.00 0.00 0.00 81 1016.0
20260507215711 81 246 0.0 0.9 0.00 0.00 0.00 80 1015.9
20260507215209 81 195 0.0 0.0 0.00 0.00 0.00 78 1015.9
20260507214706 81 197 0.0 0.9 0.00 0.00 0.00 77 1015.8
20260507214203 81 196 0.0 0.0 0.00 0.00 0.00 78 1015.7
20260507213658 81 116 0.0 1.7 0.00 0.00 0.00 77 1015.5
20260507213156 81 186 0.0 1.7 0.00 0.00 0.00 77 1015.4
20260507212651 81 198 0.0 1.7 0.00 0.00 0.00 77 1015.3
20260507212148 82 138 0.9 1.7 0.00 0.00 0.00 75 1015.4
20260507211645 82 125 0.9 2.6 0.00 0.00 0.00 74 1015.4
20260507211141 82 45 0.9 0.9 0.00 0.00 0.00 72 1015.5
20260507210639 83 101 0.0 1.7 0.00 0.00 0.00 71 1015.6
20260507210135 83 77 1.7 2.6 0.00 0.00 0.00 70 1015.5
20260507205632 82 138 0.9 3.5 0.00 0.00 0.00 70 1015.6
20260507205128 83 179 0.9 2.6 0.00 0.00 0.00 72 1015.5
20260507204625 83 111 0.9 0.9 0.00 0.00 0.00 72 1015.7
20260507204122 83 92 0.9 2.6 0.00 0.00 0.00 72 1015.7
20260507203620 82 76 0.0 0.9 0.00 0.00 0.00 73 1015.5
20260507203117 80 76 0.0 0.9 0.00 0.00 0.00 75 1015.4
20260507202613 79 96 0.9 1.7 0.00 0.00 0.00 75 1015.4
20260507202109 79 69 0.9 2.6 0.00 0.00 0.00 75 1015.6
20260507201604 80 67 0.9 2.6 0.00 0.00 0.00 76 1015.4
20260507201102 81 81 0.9 2.6 0.00 0.00 0.00 74 1015.4
20260507200557 82 60 2.6 3.5 0.00 0.00 0.00 73 1015.6
20260507200053 82 88 5.2 7.8 0.00 0.00 0.00 76 1015.7
20260507195551 82 61 1.7 2.6 0.00 0.00 0.00 76 1015.4
20260507195048 82 88 1.7 3.5 0.00 0.00 0.00 75 1015.8
20260507194544 83 58 0.0 3.5 0.00 0.00 0.00 74 1015.8
20260507194040 83 124 2.6 6.1 0.00 0.00 0.00 74 1015.7
20260507193537 83 25 0.9 3.5 0.00 0.00 0.00 74 1015.5
20260507193034 84 79 1.7 9.6 0.00 0.00 0.00 71 1015.7
20260507192530 85 126 1.7 3.5 0.00 0.00 0.00 68 1015.8
20260507192027 84 354 1.7 5.2 0.00 0.00 0.00 69 1015.6
20260507191523 84 350 1.7 7.0 0.00 0.00 0.00 69 1015.6
20260507191020 84 81 0.9 1.7 0.00 0.00 0.00 72 1015.6
20260507190517 84 32 4.3 7.0 0.00 0.00 0.00 71 1015.5
20260507190016 84 97 2.6 3.5 0.00 0.00 0.00 71 1015.7
20260507185514 84 316 2.6 3.5 0.00 0.00 0.00 71 1015.5
20260507185010 84 96 0.9 6.1 0.00 0.00 0.00 70 1015.6
20260507184509 84 355 0.9 6.1 0.00 0.00 0.00 72 1015.6
20260507184006 85 346 3.5 7.0 0.00 0.00 0.00 69 1015.7
20260507183502 85 94 0.9 5.2 0.00 0.00 0.00 69 1015.8
20260507182959 85 75 1.7 2.6 0.00 0.00 0.00 71 1015.8
20260507182455 83 327 0.9 1.7 0.00 0.00 0.00 72 1015.8
20260507181951 84 28 2.6 5.2 0.00 0.00 0.00 71 1016.0
20260507181448 85 349 3.5 6.1 0.00 0.00 0.00 69 1016.1
20260507180944 86 32 1.7 6.1 0.00 0.00 0.00 68 1016.2
20260507180441 87 55 2.6 7.0 0.00 0.00 0.00 67 1016.1
20260507175937 89 80 3.5 5.2 0.00 0.00 0.00 65 1016.0
20260507175434 88 33 0.0 2.6 0.00 0.00 0.00 67 1016.0
20260507174932 87 154 0.9 7.8 0.00 0.00 0.00 67 1016.3
20260507174429 87 34 2.6 6.1 0.00 0.00 0.00 68 1016.3
20260507173926 87 41 1.7 7.0 0.00 0.00 0.00 67 1016.4
20260507173423 89 27 0.9 9.6 0.00 0.00 0.00 67 1016.4
20260507172920 89 8 1.7 3.5 0.00 0.00 0.00 66 1016.3
20260507172416 89 2 1.7 3.5 0.00 0.00 0.00 65 1016.6
20260507171912 89 106 2.6 3.5 0.00 0.00 0.00 64 1016.5
20260507171409 87 54 0.9 3.5 0.00 0.00 0.00 67 1016.4
20260507170906 87 338 5.2 6.1 0.00 0.00 0.00 67 1016.7
20260507170403 87 30 0.9 8.7 0.00 0.00 0.00 69 1016.6
20260507165859 88 26 2.6 3.5 0.00 0.00 0.00 67 1016.7
20260507165355 87 83 0.0 3.5 0.00 0.00 0.00 69 1016.9
20260507164851 85 49 0.0 5.2 0.00 0.00 0.00 72 1017.0
20260507164348 87 60 0.9 7.8 0.00 0.00 0.00 69 1017.3
20260507163845 87 23 0.0 5.2 0.00 0.00 0.00 69 1017.1
20260507163343 87 70 1.7 3.5 0.00 0.00 0.00 69 1017.2
20260507162839 87 36 1.7 2.6 0.00 0.00 0.00 68 1017.2
20260507162334 86 64 1.7 2.6 0.00 0.00 0.00 71 1017.2
20260507161832 86 15 3.5 5.2 0.00 0.00 0.00 73 1017.4
20260507161328 87 63 0.0 5.2 0.00 0.00 0.00 69 1017.6
20260507160825 88 32 0.9 2.6 0.00 0.00 0.00 68 1017.4
20260507160321 88 116 1.7 2.6 0.00 0.00 0.00 65 1017.4
20260507155818 88 7 2.6 2.6 0.00 0.00 0.00 67 1017.5
20260507155313 90 27 2.6 3.5 0.00 0.00 0.00 62 1017.6
20260507154810 88 44 0.0 0.9 0.00 0.00 0.00 61 1017.3
20260507154307 87 44 0.9 1.7 0.00 0.00 0.00 67 1017.5
20260507153804 87 55 0.0 0.9 0.00 0.00 0.00 66 1017.5
20260507153300 88 24 0.9 1.7 0.00 0.00 0.00 66 1017.8
20260507152757 88 141 0.9 1.7 0.00 0.00 0.00 64 1017.6
20260507152253 88 90 0.9 3.5 0.00 0.00 0.00 60 1017.5
20260507151749 90 38 0.9 1.7 0.00 0.00 0.00 58 1017.8
20260507151246 89 46 0.9 1.7 0.00 0.00 0.00 59 1017.7
20260507150743 88 85 1.7 3.5 0.00 0.00 0.00 61 1017.9
20260507150240 89 217 1.7 3.5 0.00 0.00 0.00 58 1017.8
20260507145736 89 187 0.9 1.7 0.00 0.00 0.00 62 1018.0
20260507145232 88 124 0.9 1.7 0.00 0.00 0.00 61 1017.6
20260507144729 87 252 1.7 1.7 0.00 0.00 0.00 63 1017.9
20260507144227 86 24 0.0 1.7 0.00 0.00 0.00 63 1017.6
20260507143723 88 358 1.7 3.5 0.00 0.00 0.00 62 1017.9
20260507143220 89 155 1.7 2.6 0.00 0.00 0.00 59 1017.8
20260507142716 89 247 0.9 1.7 0.00 0.00 0.00 61 1018.0
20260507142213 89 98 0.0 0.0 0.00 0.00 0.00 59 1018.0
20260507141709 88 102 0.9 1.7 0.00 0.00 0.00 59 1018.1
20260507141206 87 164 1.7 3.5 0.00 0.00 0.00 62 1018.2
20260507140702 87 339 0.0 0.9 0.00 0.00 0.00 63 1018.1
20260507140200 87 95 0.0 0.9 0.00 0.00 0.00 60 1017.9
20260507135657 88 95 0.9 0.9 0.00 0.00 0.00 58 1018.0
20260507135154 87 94 0.0 1.7 0.00 0.00 0.00 60 1018.1
20260507134650 86 91 0.0 2.6 0.00 0.00 0.00 60 1018.1
20260507134147 89 138 2.6 2.6 0.00 0.00 0.00 57 1017.8
20260507133643 89 137 0.0 0.9 0.00 0.00 0.00 58 1018.1
20260507133141 87 137 0.0 0.0 0.00 0.00 0.00 62 1018.0
20260507132638 86 137 0.0 0.9 0.00 0.00 0.00 63 1018.1
20260507132133 86 137 0.9 0.9 0.00 0.00 0.00 62 1017.8
20260507131631 85 101 0.0 0.9 0.00 0.00 0.00 62 1018.0
20260507131128 84 100 0.0 0.9 0.00 0.00 0.00 65 1017.9
20260507130624 83 100 0.0 0.9 0.00 0.00 0.00 68 1018.0
20260507130123 82 109 0.9 1.7 0.00 0.00 0.00 69 1017.9
20260507125621 81 246 0.0 0.0 0.00 0.00 0.00 76 1017.9
20260507125118 80 250 0.0 0.9 0.00 0.00 0.00 78 1017.8
20260507124614 79 250 1.7 1.7 0.00 0.00 0.00 79 1018.0
20260507124112 79 250 2.6 2.6 0.00 0.00 0.00 80 1017.8
20260507123610 78 248 1.7 2.6 0.00 0.00 0.00 81 1018.0
20260507123107 77 246 1.7 2.6 0.00 0.00 0.00 82 1017.7
20260507122602 77 245 0.9 1.7 0.00 0.00 0.00 83 1017.5
20260507122058 76 245 1.7 2.6 0.00 0.00 0.00 85 1017.5
20260507121554 76 237 1.7 1.7 0.00 0.00 0.00 85 1017.7
20260507121050 75 234 0.0 0.9 0.00 0.00 0.00 86 1017.4
20260507120546 75 234 0.0 0.0 0.00 0.00 0.00 87 1017.3
20260507120043 74 234 0.0 0.0 0.00 0.00 0.00 87 1017.3
20260507115540 74 224 0.9 1.7 0.00 0.00 0.00 88 1017.4
20260507115036 74 138 0.0 0.9 0.00 0.00 0.00 89 1017.2
20260507114531 73 137 0.0 0.0 0.00 0.00 0.00 89 1017.1
20260507114029 73 137 0.0 0.0 0.00 0.00 0.00 90 1017.3
20260507113526 72 137 0.0 0.0 0.00 0.00 0.00 90 1017.2
20260507113024 72 137 0.0 0.0 0.00 0.00 0.00 92 1017.1
20260507112521 72 137 0.0 0.0 0.00 0.00 0.00 92 1017.2
20260507112017 71 137 0.0 0.9 0.00 0.00 0.00 94 1017.2
20260507111515 70 137 0.0 0.9 0.00 0.00 0.00 95 1017.1
20260507111011 69 137 0.0 0.9 0.00 0.00 0.00 96 1017.0
20260507110508 69 137 0.0 0.0 0.00 0.00 0.00 96 1017.1
20260507110004 69 137 0.0 0.0 0.00 0.00 0.00 97 1017.1
20260507105501 68 137 0.0 0.9 0.00 0.00 0.00 97 1016.8
20260507104957 68 137 0.0 0.9 0.00 0.00 0.00 97 1017.0
20260507104455 68 143 0.9 1.7 0.00 0.00 0.00 97 1017.1
20260507103950 68 128 0.0 0.0 0.00 0.00 0.00 97 1017.1
20260507103447 67 128 0.0 0.0 0.00 0.00 0.00 97 1016.9
20260507102943 67 128 0.0 0.0 0.00 0.00 0.00 97 1016.9
20260507102440 67 128 0.0 0.9 0.00 0.00 0.00 97 1017.1
20260507101937 67 128 0.0 0.0 0.00 0.00 0.00 97 1017.0
20260507101432 67 128 0.0 0.9 0.00 0.00 0.00 97 1016.8
20260507100928 67 128 0.0 0.0 0.00 0.00 0.00 97 1016.8
20260507100426 67 124 0.0 0.0 0.00 0.00 0.00 96 1016.8
20260507095924 67 124 0.0 0.0 0.00 0.00 0.00 96 1016.8
20260507095421 67 145 0.0 0.9 0.00 0.00 0.00 96 1016.6
20260507094918 68 145 0.0 0.0 0.00 0.00 0.00 96 1016.4
20260507094414 68 145 0.0 0.0 0.00 0.00 0.00 96 1016.4
20260507093911 68 145 0.0 0.9 0.00 0.00 0.00 96 1016.5
20260507093409 67 144 0.0 0.9 0.00 0.00 0.00 96 1016.5
20260507092908 67 145 0.9 0.9 0.00 0.00 0.00 96 1016.3
20260507092403 67 145 0.0 0.0 0.00 0.00 0.00 96 1016.1
20260507091900 67 145 0.0 0.9 0.00 0.00 0.00 96 1016.3
20260507091356 67 143 0.0 0.0 0.00 0.00 0.00 96 1016.4
20260507090852 67 143 0.0 0.0 0.00 0.00 0.00 96 1016.3
20260507090349 68 142 0.0 0.9 0.00 0.00 0.00 96 1016.4
20260507085846 68 143 0.0 1.7 0.00 0.00 0.00 96 1016.6
20260507085342 68 135 0.0 0.0 0.00 0.00 0.00 96 1016.7
20260507084840 68 135 0.0 0.0 0.00 0.00 0.00 96 1016.6
20260507084336 68 135 0.0 0.0 0.00 0.00 0.00 96 1016.9
20260507083834 67 135 0.0 0.0 0.00 0.00 0.00 95 1016.6
20260507083330 68 135 0.0 0.0 0.00 0.00 0.00 95 1016.7
20260507082826 68 140 0.9 1.7 0.00 0.00 0.00 95 1016.8
20260507082322 68 140 0.9 1.7 0.00 0.00 0.00 95 1016.6
20260507081819 68 140 0.0 0.9 0.00 0.00 0.00 96 1016.6
20260507081315 68 140 0.0 0.0 0.00 0.00 0.00 96 1016.7
20260507080812 68 139 0.0 0.9 0.00 0.00 0.00 95 1016.6
20260507080308 68 138 0.0 0.9 0.00 0.00 0.00 95 1016.5
20260507075803 68 147 0.9 1.7 0.00 0.00 0.00 95 1016.6
20260507075300 68 148 0.0 0.0 0.00 0.00 0.00 95 1016.6
20260507074756 68 148 0.0 0.9 0.00 0.00 0.00 95 1016.6
20260507074255 69 148 0.0 0.9 0.00 0.00 0.00 95 1016.4
20260507073751 69 139 0.0 0.0 0.00 0.00 0.00 95 1016.5
20260507073247 69 139 0.0 0.0 0.00 0.00 0.00 95 1016.6
20260507072745 69 139 0.0 0.0 0.00 0.00 0.00 94 1016.4
20260507072243 69 139 0.0 0.0 0.00 0.00 0.00 94 1016.6
20260507071740 69 131 0.9 0.9 0.00 0.00 0.00 95 1016.6
20260507071236 69 132 0.0 0.0 0.00 0.00 0.00 95 1016.7
20260507070733 69 132 0.0 0.0 0.00 0.00 0.00 94 1016.5
20260507070230 69 132 0.0 0.0 0.00 0.00 0.00 94 1016.7
20260507065726 69 132 0.0 0.9 0.00 0.00 0.00 95 1016.8
20260507065223 69 132 0.0 0.0 0.00 0.00 0.00 94 1017.0
20260507064721 70 132 0.0 0.0 0.00 0.00 0.00 95 1016.8
20260507064220 70 130 0.0 0.0 0.00 0.00 0.00 95 1017.1
20260507063716 69 127 0.0 0.9 0.00 0.00 0.00 94 1017.1
20260507063213 70 127 0.0 0.0 0.00 0.00 0.00 94 1017.2
20260507062710 70 127 0.0 0.0 0.00 0.00 0.00 94 1017.2
20260507062208 70 127 0.0 0.9 0.00 0.00 0.00 94 1017.2
20260507061706 70 127 0.0 0.9 0.00 0.00 0.00 94 1017.2
20260507061203 71 127 0.0 0.0 0.00 0.00 0.00 94 1017.5
20260507060701 71 127 0.0 0.0 0.00 0.00 0.00 93 1017.6
20260507060157 71 127 0.0 0.0 0.00 0.00 0.00 93 1017.5
20260507055653 71 127 0.0 0.0 0.00 0.00 0.00 93 1017.4
20260507055149 71 127 0.0 0.0 0.00 0.00 0.00 92 1017.5
20260507054645 71 127 0.0 0.0 0.00 0.00 0.00 92 1017.6
20260507054142 72 127 0.0 0.0 0.00 0.00 0.00 91 1017.8
20260507053640 72 127 0.0 0.9 0.00 0.00 0.00 91 1017.7
20260507053138 72 126 0.0 0.9 0.00 0.00 0.00 91 1017.9
20260507052636 72 126 0.0 0.0 0.00 0.00 0.00 91 1017.8
20260507052132 73 126 0.0 0.0 0.00 0.00 0.00 91 1018.1
20260507051630 72 131 0.0 0.0 0.00 0.00 0.00 90 1018.0
20260507051126 73 131 0.0 0.0 0.00 0.00 0.00 91 1018.1
20260507050624 73 131 0.0 0.0 0.00 0.00 0.00 91 1018.2
20260507050120 73 131 0.0 0.0 0.00 0.00 0.00 91 1018.5
20260507045617 73 131 0.0 0.0 0.00 0.00 0.00 91 1018.4
20260507045114 73 124 0.0 0.0 0.00 0.00 0.00 92 1018.5
20260507044611 74 122 0.0 0.0 0.00 0.00 0.00 92 1018.1
20260507044108 74 127 0.0 0.9 0.00 0.00 0.00 92 1018.5
20260507043603 74 128 0.0 0.0 0.00 0.00 0.00 93 1018.4
20260507043101 74 128 0.0 0.0 0.00 0.00 0.00 93 1018.6
20260507042556 74 128 0.0 0.0 0.00 0.00 0.00 93 1018.6
20260507042052 74 128 0.0 0.9 0.00 0.00 0.00 93 1018.5
20260507041549 74 128 0.0 0.0 0.00 0.00 0.00 94 1018.6
20260507041046 74 128 0.0 0.0 0.00 0.00 0.00 94 1018.9
20260507040543 74 128 0.0 0.0 0.00 0.00 0.00 94 1018.6
20260507040039 75 128 0.0 0.0 0.00 0.00 0.00 94 1018.8
20260507035535 75 128 0.0 0.0 0.00 0.01 0.01 94 1018.8
20260507035032 75 128 0.0 0.0 0.00 0.01 0.01 93 1018.8
20260507034528 75 128 0.0 0.9 0.00 0.01 0.01 93 1018.8
20260507034026 75 128 0.0 0.0 0.00 0.01 0.01 93 1018.8
20260507033524 76 128 0.0 0.0 0.00 0.01 0.01 93 1018.7
20260507033021 76 128 0.9 0.9 0.00 0.01 0.01 93 1018.8
20260507032518 76 125 0.9 0.9 0.00 0.01 0.01 93 1019.1
20260507032014 76 136 0.9 1.7 0.00 0.01 0.01 93 1018.9
20260507031510 76 168 0.9 1.7 0.00 0.01 0.01 94 1019.0
20260507031008 76 237 0.0 0.0 0.00 0.01 0.01 94 1019.1
20260507030504 76 237 0.0 0.0 0.00 0.01 0.01 94 1018.9
20260507030002 76 237 0.0 0.0 0.00 0.01 0.01 94 1018.9
20260507025459 76 237 0.0 0.0 0.00 0.01 0.01 94 1019.2
20260507024957 76 237 0.0 0.0 0.00 0.01 0.01 94 1019.1
20260507024454 77 237 0.0 0.0 0.00 0.01 0.01 94 1018.9
20260507023950 77 237 0.0 0.0 0.00 0.01 0.01 94 1019.1
20260507023446 77 237 0.0 0.0 0.00 0.01 0.01 94 1018.9
20260507022944 77 238 0.0 0.0 0.00 0.01 0.01 94 1018.9
20260507022441 77 238 0.0 0.0 0.00 0.01 0.01 94 1018.9
20260507021936 77 238 0.0 0.0 0.00 0.01 0.01 94 1019.1
20260507021431 77 238 0.0 0.0 0.00 0.01 0.01 94 1018.8
20260507020930 77 237 0.0 0.0 0.00 0.01 0.01 94 1018.9